createdAt,value
2018-04-15T00:02:02.985Z,69.90
2018-04-15T00:06:05.700Z,70.00
2018-04-15T00:10:08.321Z,69.30
2018-04-15T00:14:10.964Z,69.50
2018-04-15T00:18:13.620Z,70.30
2018-04-15T00:22:17.044Z,70.30
2018-04-15T00:26:19.653Z,70.30
2018-04-15T00:30:22.304Z,70.50
2018-04-15T00:34:25.719Z,70.80
2018-04-15T00:38:28.362Z,70.70
2018-04-15T00:42:31.010Z,70.50
2018-04-15T00:46:33.650Z,70.40
2018-04-15T00:50:36.368Z,70.60
2018-04-15T00:54:39.027Z,70.30
2018-04-15T00:58:41.674Z,70.40
2018-04-15T01:02:44.324Z,70.80
2018-04-15T01:06:47.699Z,71.00
2018-04-15T01:10:50.347Z,71.00
2018-04-15T01:14:52.989Z,70.70
2018-04-15T01:18:55.632Z,70.80
2018-04-15T01:22:59.014Z,71.40
2018-04-15T01:27:01.680Z,71.40
2018-04-15T01:31:05.152Z,72.70
2018-04-15T01:35:07.876Z,72.60
2018-04-15T01:39:11.281Z,72.90
2018-04-15T01:43:14.732Z,73.50
2018-04-15T01:47:17.388Z,73.40
2018-04-15T01:51:20.795Z,72.40
2018-04-15T01:55:24.269Z,72.90
2018-04-15T01:59:26.928Z,73.20
2018-04-15T02:03:29.547Z,73.10
2018-04-15T02:07:32.288Z,73.40
2018-04-15T02:11:34.953Z,72.90
2018-04-15T02:15:38.400Z,72.80
2018-04-15T02:19:41.076Z,72.80
2018-04-15T02:23:43.715Z,73.50
2018-04-15T02:27:46.360Z,74.10
2018-04-15T02:31:49.009Z,73.60
2018-04-15T02:35:52.419Z,73.10
2018-04-15T02:39:55.833Z,73.10
2018-04-15T02:43:59.207Z,72.80
2018-04-15T02:48:01.856Z,72.70
2018-04-15T02:52:04.496Z,74.70
2018-04-15T02:56:07.155Z,73.00
2018-04-15T03:00:09.820Z,73.40
2018-04-15T03:04:12.455Z,74.10
2018-04-15T03:08:15.111Z,74.40
2018-04-15T03:12:18.529Z,74.40
2018-04-15T03:16:21.218Z,74.30
2018-04-15T03:20:23.823Z,74.90
2018-04-15T03:24:26.476Z,74.70
2018-04-15T03:28:29.276Z,73.70
2018-04-15T03:32:31.920Z,75.00
2018-04-15T03:36:35.448Z,73.80
2018-04-15T03:40:38.055Z,73.70
2018-04-15T03:44:40.767Z,73.60
2018-04-15T03:48:43.425Z,74.70
2018-04-15T03:52:46.071Z,74.00
2018-04-15T03:56:49.560Z,74.50
2018-04-15T04:00:52.186Z,74.40
2018-04-15T04:04:54.839Z,74.70
2018-04-15T04:08:57.485Z,74.40
2018-04-15T04:13:00.175Z,74.00
2018-04-15T04:17:02.840Z,74.30
2018-04-15T04:21:17.171Z,73.70
2018-04-15T04:25:35.648Z,73.80
2018-04-15T04:29:39.164Z,74.60
2018-04-15T04:33:42.586Z,74.40
2018-04-15T04:37:45.200Z,74.40
2018-04-15T04:41:47.897Z,74.90
2018-04-15T04:45:50.539Z,75.10
2018-04-15T04:49:53.192Z,73.30
2018-04-15T04:53:55.861Z,73.50
2018-04-15T04:57:58.467Z,73.00
2018-04-15T05:02:01.125Z,73.70
2018-04-15T05:06:03.770Z,73.80
2018-04-15T05:10:07.185Z,73.20
2018-04-15T05:14:10.615Z,73.30
2018-04-15T05:18:13.235Z,73.20
2018-04-15T05:22:15.888Z,73.30
2018-04-15T05:26:18.538Z,72.90
2018-04-15T05:30:21.218Z,72.80
2018-04-15T05:34:23.843Z,72.80
2018-04-15T05:38:26.490Z,73.20
2018-04-15T05:42:29.143Z,72.50
2018-04-15T05:46:31.805Z,72.80
2018-04-15T05:50:34.461Z,73.00
2018-04-15T05:54:37.075Z,73.80
2018-04-15T05:58:39.871Z,74.60
2018-04-15T06:02:43.290Z,73.30
2018-04-15T06:06:45.941Z,73.30
2018-04-15T06:10:48.600Z,73.60
2018-04-15T06:14:51.229Z,72.80
2018-04-15T06:18:54.644Z,73.20
2018-04-15T06:22:57.284Z,73.10
2018-04-15T06:26:59.949Z,73.20
2018-04-15T06:31:02.613Z,73.10
2018-04-15T06:35:05.240Z,73.60
2018-04-15T06:39:08.803Z,73.40
2018-04-15T06:43:12.252Z,73.90
2018-04-15T06:47:14.922Z,73.80
2018-04-15T06:51:17.537Z,73.10
2018-04-15T06:55:20.189Z,74.00
2018-04-15T06:59:22.826Z,73.70
2018-04-15T07:03:25.472Z,73.90
2018-04-15T07:07:28.179Z,73.70
2018-04-15T07:11:30.790Z,73.40
2018-04-15T07:15:33.480Z,73.30
2018-04-15T07:19:36.131Z,73.60
2018-04-15T07:23:38.775Z,73.80
2018-04-15T07:27:41.424Z,74.60
2018-04-15T07:31:44.032Z,74.80
2018-04-15T07:35:46.690Z,73.80
2018-04-15T07:39:49.346Z,75.20
2018-04-15T07:43:52.766Z,75.00
2018-04-15T07:47:55.407Z,75.00
2018-04-15T07:51:58.825Z,74.40
2018-04-15T07:56:01.468Z,74.40
2018-04-15T08:00:04.115Z,74.70
2018-04-15T08:04:06.752Z,74.50
2018-04-15T08:08:09.364Z,74.50
2018-04-15T08:12:12.018Z,76.20
2018-04-15T08:16:14.660Z,76.20
2018-04-15T08:20:17.307Z,76.80
2018-04-15T08:24:19.968Z,75.10
2018-04-15T08:28:22.645Z,75.30
2018-04-15T08:32:26.066Z,75.00
2018-04-15T08:36:28.703Z,75.00
2018-04-15T08:40:31.349Z,76.90
2018-04-15T08:44:33.993Z,75.80
2018-04-15T08:48:36.611Z,77.20
2018-04-15T08:52:40.026Z,76.10
2018-04-15T08:56:42.672Z,76.20
2018-04-15T09:00:45.356Z,76.50
2018-04-15T09:04:48.095Z,78.00
2018-04-15T09:08:50.708Z,78.40
2018-04-15T09:12:53.353Z,77.10
2018-04-15T09:16:56.757Z,77.40
2018-04-15T09:21:00.224Z,76.70
2018-04-15T09:25:02.904Z,76.80
2018-04-15T09:29:05.600Z,77.70
2018-04-15T09:33:08.245Z,76.50
2018-04-15T09:37:10.888Z,76.90
2018-04-15T09:41:13.529Z,76.70
2018-04-15T09:45:16.149Z,78.30
2018-04-15T09:49:18.800Z,78.10
2018-04-15T09:53:21.436Z,77.10
2018-04-15T09:57:24.074Z,77.70
2018-04-15T10:01:26.714Z,77.40
2018-04-15T10:05:29.323Z,77.00
2018-04-15T10:09:32.777Z,77.00
2018-04-15T10:13:35.423Z,77.50
2018-04-15T10:17:38.827Z,76.90
2018-04-15T10:21:42.231Z,78.00
2018-04-15T10:25:45.656Z,77.70
2018-04-15T10:29:48.299Z,77.60
2018-04-15T10:33:50.946Z,78.40
2018-04-15T10:37:53.581Z,76.90
2018-04-15T10:41:56.231Z,76.40
2018-04-15T10:45:58.901Z,76.50
2018-04-15T10:50:01.551Z,77.10
2018-04-15T10:54:04.289Z,77.60
2018-04-15T10:58:06.956Z,77.80
2018-04-15T11:02:10.387Z,77.90
2018-04-15T11:06:13.045Z,77.80
2018-04-15T11:10:16.451Z,79.00
2018-04-15T11:14:19.853Z,77.00
2018-04-15T11:18:22.474Z,77.10
2018-04-15T11:22:25.120Z,77.70
2018-04-15T11:26:27.756Z,76.50
2018-04-15T11:30:30.387Z,78.70
2018-04-15T11:34:33.092Z,78.20
2018-04-15T11:38:35.709Z,78.30
2018-04-15T11:42:38.403Z,77.80
2018-04-15T11:46:41.046Z,77.40
2018-04-15T11:50:44.487Z,78.60
2018-04-15T11:54:47.890Z,77.40
2018-04-15T11:58:51.319Z,77.80
2018-04-15T12:02:53.960Z,77.80
2018-04-15T12:06:56.602Z,78.60
2018-04-15T12:10:59.249Z,77.00
2018-04-15T12:15:02.666Z,77.00
2018-04-15T12:19:06.041Z,76.90
2018-04-15T12:23:08.676Z,76.90
2018-04-15T12:27:11.312Z,76.50
2018-04-15T12:31:13.947Z,76.50
2018-04-15T12:35:16.551Z,76.80
2018-04-15T12:39:19.180Z,76.50
2018-04-15T12:43:21.828Z,76.50
2018-04-15T12:47:24.468Z,75.80
2018-04-15T12:51:27.276Z,75.40
2018-04-15T12:55:30.985Z,75.50
2018-04-15T12:59:33.882Z,74.80
2018-04-15T13:03:36.563Z,74.80
2018-04-15T13:07:39.201Z,75.30
2018-04-15T13:11:41.880Z,75.30
2018-04-15T13:15:44.484Z,74.90
2018-04-15T13:19:47.156Z,75.50
2018-04-15T13:23:49.787Z,75.60
2018-04-15T13:27:52.428Z,75.70
2018-04-15T13:31:55.085Z,75.40
2018-04-15T13:35:58.460Z,75.20
2018-04-15T13:40:01.091Z,75.10
2018-04-15T13:44:04.499Z,75.00
2018-04-15T13:48:07.904Z,74.80
2018-04-15T13:52:11.271Z,74.80
2018-04-15T13:56:13.933Z,74.70
2018-04-15T14:00:16.626Z,74.80
2018-04-15T14:04:19.279Z,72.60
2018-04-15T14:08:22.687Z,74.60
2018-04-15T14:12:25.345Z,73.80
2018-04-15T14:16:28.003Z,74.60
2018-04-15T14:20:30.660Z,74.30
2018-04-15T14:24:33.294Z,74.40
2018-04-15T14:28:36.003Z,74.60
2018-04-15T14:32:38.616Z,74.70
2018-04-15T14:36:41.277Z,74.70
2018-04-15T14:40:43.927Z,74.90
2018-04-15T14:44:46.582Z,74.80
2018-04-15T14:48:49.244Z,74.80
2018-04-15T14:52:51.858Z,74.40
2018-04-15T14:56:54.577Z,75.10
2018-04-15T15:00:57.225Z,74.40
2018-04-15T15:05:00.637Z,74.20
2018-04-15T15:09:04.007Z,74.10
2018-04-15T15:13:06.653Z,74.00
2018-04-15T15:17:09.313Z,73.70
2018-04-15T15:21:12.727Z,73.70
2018-04-15T15:25:16.144Z,74.10
2018-04-15T15:29:18.810Z,74.00
2018-04-15T15:33:22.212Z,73.00
2018-04-15T15:37:25.625Z,73.10
2018-04-15T15:41:29.036Z,73.70
2018-04-15T15:45:32.459Z,73.20
2018-04-15T15:49:35.069Z,73.00
2018-04-15T15:53:37.712Z,73.20
2018-04-15T15:57:41.116Z,73.70
2018-04-15T16:01:44.583Z,73.50
2018-04-15T16:05:47.238Z,73.50
2018-04-15T16:09:49.846Z,73.70
2018-04-15T16:13:52.548Z,73.00
2018-04-15T16:17:55.187Z,72.60
2018-04-15T16:21:58.595Z,73.00
2018-04-15T16:26:01.964Z,73.10
2018-04-15T16:30:04.605Z,71.40
2018-04-15T16:34:07.249Z,73.00
2018-04-15T16:38:09.989Z,73.20
2018-04-15T16:42:12.632Z,72.90
2018-04-15T16:46:15.300Z,72.70
2018-04-15T16:50:17.964Z,71.50
2018-04-15T16:54:20.632Z,72.70
2018-04-15T16:58:23.303Z,72.80
2018-04-15T17:02:26.707Z,73.10
2018-04-15T17:06:30.077Z,73.10
2018-04-15T17:10:32.775Z,73.10
2018-04-15T17:14:35.423Z,73.20
2018-04-15T17:18:38.067Z,73.40
2018-04-15T17:22:40.743Z,73.50
2018-04-15T17:26:43.381Z,73.20
2018-04-15T17:30:46.022Z,73.20
2018-04-15T17:34:48.656Z,73.40
2018-04-15T17:38:51.307Z,73.40
2018-04-15T17:42:53.930Z,73.40
2018-04-15T17:46:56.615Z,73.40
2018-04-15T17:50:59.259Z,73.30
2018-04-15T17:55:01.980Z,73.30
2018-04-15T17:59:04.714Z,73.30
2018-04-15T18:03:07.324Z,73.20
2018-04-15T18:07:10.024Z,73.20
2018-04-15T18:11:12.727Z,73.10
2018-04-15T18:15:16.131Z,73.10
2018-04-15T18:19:19.539Z,73.10
2018-04-15T18:23:22.912Z,73.20
2018-04-15T18:27:25.560Z,73.10
2018-04-15T18:31:28.203Z,73.00
2018-04-15T18:35:30.849Z,73.00
2018-04-15T18:39:33.502Z,73.00
2018-04-15T18:43:36.879Z,72.90
2018-04-15T18:47:39.571Z,72.80
2018-04-15T18:51:42.205Z,72.80
2018-04-15T18:55:44.842Z,72.10
2018-04-15T18:59:47.463Z,72.90
2018-04-15T19:03:50.259Z,72.80
2018-04-15T19:07:52.988Z,72.80
2018-04-15T19:11:57.179Z,72.80
2018-04-15T19:16:01.917Z,72.10
2018-04-15T19:20:04.564Z,72.20
2018-04-15T19:24:07.281Z,72.70
2018-04-15T19:28:10.732Z,72.70
2018-04-15T19:32:13.406Z,72.60
2018-04-15T19:36:16.073Z,72.70
2018-04-15T19:40:19.507Z,72.70
2018-04-15T19:44:22.182Z,72.70
2018-04-15T19:48:24.866Z,72.70
2018-04-15T19:52:27.560Z,72.00
2018-04-15T19:56:30.249Z,72.70
2018-04-15T20:00:32.946Z,72.60
2018-04-15T20:04:35.664Z,72.60
2018-04-15T20:08:38.872Z,72.70
2018-04-15T20:12:42.326Z,73.40
2018-04-15T20:16:45.776Z,72.60
2018-04-15T20:20:48.438Z,72.60
2018-04-15T20:24:51.149Z,72.60
2018-04-15T20:28:53.833Z,72.70
2018-04-15T20:32:56.641Z,72.00
2018-04-15T20:36:59.324Z,72.80
2018-04-15T20:41:01.986Z,72.60
2018-04-15T20:45:04.784Z,72.70
2018-04-15T20:49:07.462Z,72.60
2018-04-15T20:53:10.129Z,72.60
2018-04-15T20:57:13.537Z,72.70
2018-04-15T21:01:16.283Z,72.60
2018-04-15T21:05:18.939Z,72.70
2018-04-15T21:09:21.605Z,72.70
2018-04-15T21:13:25.070Z,72.70
2018-04-15T21:17:27.726Z,72.80
2018-04-15T21:21:30.408Z,73.30
2018-04-15T21:25:33.092Z,72.70
2018-04-15T21:29:35.761Z,72.90
2018-04-15T21:33:38.445Z,72.70
2018-04-15T21:37:41.112Z,72.60
2018-04-15T21:41:43.793Z,73.00
2018-04-15T21:45:46.461Z,72.90
2018-04-15T21:49:49.161Z,72.90
2018-04-15T21:53:51.845Z,73.00
2018-04-15T21:57:54.480Z,73.20
2018-04-15T22:01:57.150Z,72.80
2018-04-15T22:05:59.818Z,72.70
2018-04-15T22:10:02.494Z,72.90
2018-04-15T22:14:05.172Z,72.80
2018-04-15T22:18:07.889Z,72.80
2018-04-15T22:22:10.600Z,73.30
2018-04-15T22:26:13.329Z,73.20
2018-04-15T22:30:16.012Z,72.60
2018-04-15T22:34:19.448Z,73.30
2018-04-15T22:38:22.101Z,73.20
2018-04-15T22:42:25.561Z,73.40
2018-04-15T22:46:28.234Z,73.40
2018-04-15T22:50:36.423Z,73.30
2018-04-15T22:54:39.108Z,74.00
2018-04-15T22:58:47.464Z,73.40
2018-04-15T23:02:50.125Z,72.70
2018-04-15T23:06:52.793Z,73.50
2018-04-15T23:10:55.462Z,73.40
2018-04-15T23:14:58.126Z,73.50
2018-04-15T23:19:00.768Z,73.50
2018-04-15T23:23:03.457Z,73.50
2018-04-15T23:27:06.897Z,73.50
2018-04-15T23:31:09.561Z,73.50
2018-04-15T23:35:13.050Z,73.80
2018-04-15T23:39:15.711Z,73.70
2018-04-15T23:43:18.377Z,73.40
2018-04-15T23:47:21.104Z,73.60
2018-04-15T23:51:23.819Z,73.70
2018-04-15T23:55:27.310Z,73.70
2018-04-15T23:59:29.970Z,73.10
